createdAt,value
2018-08-09T00:00:11.794Z,95633.87
2018-08-09T00:02:40.916Z,95632.65
2018-08-09T00:05:10.050Z,95632.13
2018-08-09T00:07:39.172Z,95633.45
2018-08-09T00:10:08.289Z,95633.53
2018-08-09T00:12:38.660Z,95631.98
2018-08-09T00:15:07.904Z,95628.82
2018-08-09T00:17:37.059Z,95628.63
2018-08-09T00:20:07.203Z,95623.56
2018-08-09T00:22:36.382Z,95616.53
2018-08-09T00:25:05.944Z,95616.69
2018-08-09T00:27:35.472Z,95613.52
2018-08-09T00:30:05.629Z,95618.50
2018-08-09T00:32:34.810Z,95614.02
2018-08-09T00:35:03.961Z,95619.67
2018-08-09T00:37:33.116Z,95612.24
2018-08-09T00:40:02.292Z,95604.52
2018-08-09T00:42:31.375Z,95602.40
2018-08-09T00:45:00.529Z,95602.67
2018-08-09T00:47:29.639Z,95594.95
2018-08-09T00:49:58.720Z,95598.81
2018-08-09T00:52:27.903Z,95595.08
2018-08-09T00:54:57.009Z,95592.45
2018-08-09T00:57:26.267Z,95595.48
2018-08-09T00:59:55.440Z,95586.30
2018-08-09T01:02:24.603Z,95581.55
2018-08-09T01:04:53.689Z,95576.74
2018-08-09T01:07:22.934Z,95571.85
2018-08-09T01:09:52.024Z,95580.08
2018-08-09T01:12:21.111Z,95577.56
2018-08-09T01:14:50.237Z,95578.86
2018-08-09T01:17:19.388Z,95584.69
2018-08-09T01:19:48.491Z,95580.13
2018-08-09T01:22:17.655Z,95585.77
2018-08-09T01:24:46.735Z,95579.55
2018-08-09T01:27:15.900Z,95584.38
2018-08-09T01:29:45.030Z,95571.75
2018-08-09T01:32:14.089Z,95580.58
2018-08-09T01:34:43.221Z,95571.49
2018-08-09T01:37:12.495Z,95574.20
2018-08-09T01:39:41.653Z,95571.69
2018-08-09T01:42:22.237Z,95571.70
2018-08-09T01:44:51.336Z,95570.16
2018-08-09T01:47:20.840Z,95565.12
2018-08-09T01:49:50.058Z,95557.22
2018-08-09T01:52:19.212Z,95557.33
2018-08-09T01:54:48.476Z,95561.50
2018-08-09T01:57:17.666Z,95560.59
2018-08-09T01:59:46.817Z,95561.64
2018-08-09T02:02:16.001Z,95569.16
2018-08-09T02:04:45.141Z,95574.45
2018-08-09T02:07:14.259Z,95579.81
2018-08-09T02:09:43.363Z,95575.09
2018-08-09T02:12:12.476Z,95580.63
2018-08-09T02:14:41.611Z,95578.89
2018-08-09T02:17:10.727Z,95573.33
2018-08-09T02:19:39.851Z,95564.56
2018-08-09T02:22:08.979Z,95572.89
2018-08-09T02:24:38.133Z,95576.59
2018-08-09T02:27:07.264Z,95574.59
2018-08-09T02:29:36.401Z,95569.05
2018-08-09T02:32:05.543Z,95574.83
2018-08-09T02:34:34.631Z,95564.49
2018-08-09T02:37:03.825Z,95563.17
2018-08-09T02:39:32.912Z,95569.10
2018-08-09T02:42:02.082Z,95570.66
2018-08-09T02:44:31.173Z,95564.84
2018-08-09T02:47:00.439Z,95567.34
2018-08-09T02:49:29.546Z,95567.06
2018-08-09T02:51:58.676Z,95563.05
2018-08-09T02:54:27.809Z,95555.02
2018-08-09T02:56:56.974Z,95554.95
2018-08-09T02:59:26.081Z,95557.00
2018-08-09T03:01:55.319Z,95554.67
2018-08-09T03:04:24.443Z,95549.08
2018-08-09T03:06:53.560Z,95547.45
2018-08-09T03:09:22.652Z,95543.29
2018-08-09T03:11:51.790Z,95538.80
2018-08-09T03:14:20.942Z,95543.82
2018-08-09T03:16:50.036Z,95539.55
2018-08-09T03:19:19.184Z,95536.17
2018-08-09T03:21:48.386Z,95541.32
2018-08-09T03:24:17.679Z,95545.98
2018-08-09T03:26:46.839Z,95539.18
2018-08-09T03:29:15.908Z,95540.56
2018-08-09T03:31:45.014Z,95537.08
2018-08-09T03:34:14.198Z,95540.66
2018-08-09T03:36:43.310Z,95535.31
2018-08-09T03:39:13.047Z,95534.35
2018-08-09T03:41:42.159Z,95538.31
2018-08-09T03:44:11.311Z,95541.81
2018-08-09T03:46:40.409Z,95534.02
2018-08-09T03:49:09.520Z,95536.38
2018-08-09T03:51:38.720Z,95538.37
2018-08-09T03:54:07.839Z,95537.69
2018-08-09T03:56:36.923Z,95536.46
2018-08-09T03:59:06.069Z,95537.73
2018-08-09T04:01:35.201Z,95538.24
2018-08-09T04:04:04.316Z,95536.35
2018-08-09T04:06:33.546Z,95534.39
2018-08-09T04:09:02.668Z,95545.58
2018-08-09T04:11:31.750Z,95549.53
2018-08-09T04:14:00.874Z,95551.09
2018-08-09T04:16:30.121Z,95550.24
2018-08-09T04:18:59.218Z,95550.45
2018-08-09T04:21:28.356Z,95556.23
2018-08-09T04:23:57.504Z,95558.42
2018-08-09T04:26:26.594Z,95559.91
2018-08-09T04:28:55.700Z,95564.17
2018-08-09T04:31:24.980Z,95570.39
2018-08-09T04:33:54.096Z,95566.80
2018-08-09T04:36:23.248Z,95566.02
2018-08-09T04:38:52.459Z,95570.66
2018-08-09T04:41:21.587Z,95577.19
2018-08-09T04:43:50.747Z,95572.11
2018-08-09T04:46:19.896Z,95567.48
2018-08-09T04:48:49.052Z,95570.45
2018-08-09T04:51:18.159Z,95570.63
2018-08-09T04:53:47.346Z,95565.85
2018-08-09T04:56:16.473Z,95569.88
2018-08-09T04:58:45.608Z,95567.16
2018-08-09T05:01:14.843Z,95571.50
2018-08-09T05:03:44.093Z,95572.27
2018-08-09T05:06:13.249Z,95573.80
2018-08-09T05:08:42.605Z,95581.11
2018-08-09T05:11:11.727Z,95579.16
2018-08-09T05:13:40.879Z,95572.70
2018-08-09T05:16:10.155Z,95578.02
2018-08-09T05:18:39.351Z,95582.33
2018-08-09T05:21:08.767Z,95580.96
2018-08-09T05:23:37.871Z,95578.99
2018-08-09T05:26:07.490Z,95580.77
2018-08-09T05:28:36.626Z,95583.16
2018-08-09T05:31:05.743Z,95582.58
2018-08-09T05:33:34.917Z,95583.09
2018-08-09T05:36:04.151Z,95579.83
2018-08-09T05:38:33.296Z,95579.02
2018-08-09T05:41:02.461Z,95580.13
2018-08-09T05:43:31.603Z,95580.82
2018-08-09T05:46:00.726Z,95582.30
2018-08-09T05:48:30.186Z,95575.55
2018-08-09T05:50:59.290Z,95581.92
2018-08-09T05:53:28.527Z,95582.59
2018-08-09T05:55:57.756Z,95581.55
2018-08-09T05:58:26.932Z,95587.83
2018-08-09T06:00:56.109Z,95592.77
2018-08-09T06:03:25.240Z,95591.09
2018-08-09T06:05:54.306Z,95594.02
2018-08-09T06:08:23.485Z,95593.58
2018-08-09T06:10:52.571Z,95601.42
2018-08-09T06:13:22.642Z,95602.09
2018-08-09T06:15:51.792Z,95604.59
2018-08-09T06:18:21.094Z,95604.77
2018-08-09T06:20:50.224Z,95609.80
2018-08-09T06:23:19.441Z,95604.28
2018-08-09T06:25:48.548Z,95606.18
2018-08-09T06:28:17.699Z,95601.85
2018-08-09T06:30:46.924Z,95601.93
2018-08-09T06:33:16.052Z,95601.93
2018-08-09T06:35:45.565Z,95606.38
2018-08-09T06:38:14.819Z,95608.77
2018-08-09T06:40:43.946Z,95607.59
2018-08-09T06:43:13.077Z,95604.50
2018-08-09T06:45:42.202Z,95608.25
2018-08-09T06:48:11.343Z,95603.25
2018-08-09T06:50:40.488Z,95599.01
2018-08-09T06:53:09.631Z,95603.02
2018-08-09T06:55:38.756Z,95604.63
2018-08-09T06:58:07.862Z,95603.08
2018-08-09T07:00:36.968Z,95604.13
2018-08-09T07:03:07.153Z,95606.54
2018-08-09T07:05:36.280Z,95603.46
2018-08-09T07:08:05.408Z,95604.56
2018-08-09T07:10:34.572Z,95594.02
2018-08-09T07:13:03.704Z,95601.23
2018-08-09T07:15:32.820Z,95595.66
2018-08-09T07:18:01.944Z,95592.00
2018-08-09T07:20:31.368Z,95592.70
2018-08-09T07:23:00.500Z,95584.29
2018-08-09T07:25:29.708Z,95586.03
2018-08-09T07:27:58.778Z,95586.45
2018-08-09T07:30:27.875Z,95576.06
2018-08-09T07:32:57.002Z,95587.08
2018-08-09T07:35:26.101Z,95583.99
2018-08-09T07:37:55.337Z,95582.65
2018-08-09T07:40:24.411Z,95574.75
2018-08-09T07:42:53.520Z,95575.80
2018-08-09T07:45:22.596Z,95582.67
2018-08-09T07:47:51.767Z,95574.85
2018-08-09T07:50:20.831Z,95570.13
2018-08-09T07:52:49.945Z,95582.34
2018-08-09T07:55:19.135Z,95576.39
2018-08-09T07:57:48.207Z,95571.18
2018-08-09T08:00:17.579Z,95571.99
2018-08-09T08:02:46.707Z,95565.10
2018-08-09T08:05:15.795Z,95565.85
2018-08-09T08:07:45.053Z,95566.34
2018-08-09T08:10:14.165Z,95565.03
2018-08-09T08:12:43.272Z,95566.50
2018-08-09T08:15:12.459Z,95561.61
2018-08-09T08:17:41.875Z,95555.03
2018-08-09T08:20:10.999Z,95563.27
2018-08-09T08:22:46.452Z,95561.27
2018-08-09T08:25:15.631Z,95556.42
2018-08-09T08:27:45.066Z,95554.32
2018-08-09T08:30:14.668Z,95547.09
2018-08-09T08:32:43.968Z,95553.50
2018-08-09T08:35:13.106Z,95554.66
2018-08-09T08:37:42.308Z,95551.14
2018-08-09T08:40:11.458Z,95545.17
2018-08-09T08:42:40.584Z,95549.77
2018-08-09T08:45:12.382Z,95545.86
2018-08-09T08:47:41.821Z,95539.81
2018-08-09T08:50:11.451Z,95529.22
2018-08-09T08:52:40.588Z,95535.89
2018-08-09T08:55:11.387Z,95528.81
2018-08-09T08:57:40.576Z,95536.92
2018-08-09T09:00:11.269Z,95535.31
2018-08-09T09:02:40.732Z,95527.19
2018-08-09T09:05:11.552Z,95525.01
2018-08-09T09:07:40.679Z,95513.67
2018-08-09T09:10:11.501Z,95506.81
2018-08-09T09:12:40.608Z,95519.45
2018-08-09T09:15:12.241Z,95499.98
2018-08-09T09:17:42.579Z,95502.63
2018-08-09T09:20:13.783Z,95497.14
2018-08-09T09:22:43.739Z,95493.32
2018-08-09T09:25:13.133Z,95497.06
2018-08-09T09:27:42.213Z,95496.78
2018-08-09T09:30:14.986Z,95499.23
2018-08-09T09:32:44.258Z,95495.09
2018-08-09T09:35:13.408Z,95497.03
2018-08-09T09:37:42.847Z,95497.63
2018-08-09T09:40:11.968Z,95487.81
2018-08-09T09:42:41.141Z,95482.47
2018-08-09T09:45:10.689Z,95494.67
2018-08-09T09:47:39.887Z,95495.89
2018-08-09T09:50:10.082Z,95496.28
2018-08-09T09:52:39.177Z,95493.09
2018-08-09T09:55:08.372Z,95492.08
2018-08-09T09:57:37.986Z,95488.64
2018-08-09T10:00:12.460Z,95487.26
2018-08-09T10:02:41.728Z,95483.07
2018-08-09T10:05:10.836Z,95477.25
2018-08-09T10:07:40.088Z,95474.45
2018-08-09T10:10:09.691Z,95476.45
2018-08-09T10:12:38.991Z,95476.84
2018-08-09T10:15:08.240Z,95472.61
2018-08-09T10:17:37.517Z,95472.01
2018-08-09T10:20:07.161Z,95473.17
2018-08-09T10:22:36.528Z,95470.37
2018-08-09T10:25:06.008Z,95463.19
2018-08-09T10:27:35.105Z,95465.89
2018-08-09T10:30:05.076Z,95461.43
2018-08-09T10:32:34.194Z,95455.16
2018-08-09T10:35:03.296Z,95457.13
2018-08-09T10:37:32.467Z,95453.45
2018-08-09T10:40:01.864Z,95455.53
2018-08-09T10:42:31.043Z,95455.76
2018-08-09T10:45:00.148Z,95442.87
2018-08-09T10:47:29.587Z,95440.84
2018-08-09T10:49:58.827Z,95443.00
2018-08-09T10:52:27.951Z,95442.11
2018-08-09T10:54:57.159Z,95433.56
2018-08-09T10:57:26.556Z,95438.92
2018-08-09T10:59:55.634Z,95430.80
2018-08-09T11:02:24.721Z,95425.67
2018-08-09T11:04:53.829Z,95420.06
2018-08-09T11:07:22.919Z,95420.70
2018-08-09T11:09:52.019Z,95416.23
2018-08-09T11:12:21.153Z,95419.67
2018-08-09T11:14:50.791Z,95419.39
2018-08-09T11:17:20.687Z,95414.67
2018-08-09T11:19:49.857Z,95410.87
2018-08-09T11:22:19.019Z,95409.42
2018-08-09T11:24:48.152Z,95408.45
2018-08-09T11:27:17.328Z,95402.17
2018-08-09T11:29:46.449Z,95400.23
2018-08-09T11:32:15.540Z,95402.77
2018-08-09T11:34:44.708Z,95399.88
2018-08-09T11:37:13.897Z,95402.09
2018-08-09T11:39:43.008Z,95399.04
2018-08-09T11:42:12.080Z,95401.88
2018-08-09T11:44:41.282Z,95400.31
2018-08-09T11:47:10.500Z,95398.47
2018-08-09T11:49:39.596Z,95390.69
2018-08-09T11:52:08.772Z,95388.94
2018-08-09T11:54:37.880Z,95385.92
2018-08-09T11:57:07.014Z,95395.75
2018-08-09T11:59:36.217Z,95395.38
2018-08-09T12:02:05.315Z,95386.12
2018-08-09T12:04:34.632Z,95377.91
2018-08-09T12:07:03.752Z,95371.25
2018-08-09T12:09:32.970Z,95374.95
2018-08-09T12:12:01.961Z,95381.50
2018-08-09T12:14:31.079Z,95374.13
2018-08-09T12:17:00.346Z,95375.70
2018-08-09T12:19:29.414Z,95369.67
2018-08-09T12:21:58.577Z,95368.59
2018-08-09T12:24:27.833Z,95369.88
2018-08-09T12:26:56.925Z,95364.41
2018-08-09T12:29:26.005Z,95362.25
2018-08-09T12:31:55.142Z,95355.84
2018-08-09T12:34:24.349Z,95354.83
2018-08-09T12:36:53.444Z,95355.16
2018-08-09T12:39:22.516Z,95352.17
2018-08-09T12:41:51.752Z,95346.74
2018-08-09T12:44:20.874Z,95341.42
2018-08-09T12:46:49.956Z,95346.98
2018-08-09T12:49:19.000Z,95345.73
2018-08-09T12:51:48.117Z,95338.97
2018-08-09T12:54:17.200Z,95335.46
2018-08-09T12:56:46.400Z,95333.48
2018-08-09T12:59:15.498Z,95331.35
2018-08-09T13:01:44.740Z,95340.52
2018-08-09T13:04:13.872Z,95334.93
2018-08-09T13:06:43.016Z,95308.03
2018-08-09T13:09:12.643Z,95327.47
2018-08-09T13:11:41.763Z,95329.34
2018-08-09T13:14:10.876Z,95334.59
2018-08-09T13:16:39.958Z,95322.33
2018-08-09T13:19:09.071Z,95321.34
2018-08-09T13:21:38.186Z,95310.17
2018-08-09T13:24:07.375Z,95311.67
2018-08-09T13:26:36.574Z,95304.63
2018-08-09T13:29:05.976Z,95308.56
2018-08-09T13:31:35.043Z,95310.09
2018-08-09T13:34:04.164Z,95299.77
2018-08-09T13:36:33.381Z,95302.87
2018-08-09T13:39:02.499Z,95288.03
2018-08-09T13:41:31.591Z,95285.82
2018-08-09T13:44:00.687Z,95285.16
2018-08-09T13:46:29.891Z,95293.59
2018-08-09T13:48:59.005Z,95294.38
2018-08-09T13:51:28.151Z,95285.18
2018-08-09T13:53:57.209Z,95284.30
2018-08-09T13:56:26.395Z,95285.11
2018-08-09T13:58:55.497Z,95282.53
2018-08-09T14:01:24.717Z,95274.70
2018-08-09T14:03:53.848Z,95283.29
2018-08-09T14:06:22.912Z,95277.38
2018-08-09T14:08:52.090Z,95274.63
2018-08-09T14:11:21.203Z,95273.02
2018-08-09T14:13:50.320Z,95272.34
2018-08-09T14:16:19.484Z,95276.80
2018-08-09T14:18:48.664Z,95276.46
2018-08-09T14:21:17.789Z,95271.34
2018-08-09T14:23:46.989Z,95276.73
2018-08-09T14:26:16.148Z,95270.70
2018-08-09T14:28:45.264Z,95263.20
2018-08-09T14:31:14.475Z,95263.45
2018-08-09T14:33:43.572Z,95266.28
2018-08-09T14:36:12.760Z,95263.88
2018-08-09T14:38:41.976Z,95271.69
2018-08-09T14:41:11.441Z,95274.86
2018-08-09T14:43:40.593Z,95272.81
2018-08-09T14:46:09.708Z,95279.23
2018-08-09T14:48:38.978Z,95274.69
2018-08-09T14:51:08.044Z,95271.38
2018-08-09T14:53:37.185Z,95268.83
2018-08-09T14:56:06.341Z,95267.16
2018-08-09T14:58:35.510Z,95260.16
2018-08-09T15:01:04.644Z,95267.61
2018-08-09T15:03:33.738Z,95259.78
2018-08-09T15:06:02.919Z,95262.77
2018-08-09T15:08:32.076Z,95265.08
2018-08-09T15:11:01.215Z,95274.74
2018-08-09T15:13:30.321Z,95273.26
2018-08-09T15:15:59.416Z,95273.72
2018-08-09T15:18:28.652Z,95280.88
2018-08-09T15:20:57.759Z,95273.97
2018-08-09T15:23:27.111Z,95274.70
2018-08-09T15:25:56.281Z,95275.67
2018-08-09T15:28:26.153Z,95284.28
2018-08-09T15:30:55.310Z,95287.59
2018-08-09T15:33:24.485Z,95284.84
2018-08-09T15:35:53.623Z,95282.39
2018-08-09T15:38:22.747Z,95278.99
2018-08-09T15:40:51.865Z,95280.19
2018-08-09T15:43:20.969Z,95275.43
2018-08-09T15:45:50.074Z,95280.95
2018-08-09T15:48:19.163Z,95279.81
2018-08-09T15:50:48.253Z,95267.81
2018-08-09T15:53:17.346Z,95280.80
2018-08-09T15:55:46.404Z,95270.59
2018-08-09T15:58:15.581Z,95274.02
2018-08-09T16:00:44.669Z,95262.49
2018-08-09T16:03:13.869Z,95266.16
2018-08-09T16:05:43.020Z,95257.09
2018-08-09T16:08:12.129Z,95258.81
2018-08-09T16:10:41.203Z,95258.66
2018-08-09T16:13:10.353Z,95270.08
2018-08-09T16:15:39.551Z,95269.40
2018-08-09T16:18:08.819Z,95276.41
2018-08-09T16:20:38.050Z,95285.58
2018-08-09T16:23:07.247Z,95298.58
2018-08-09T16:25:36.498Z,95306.67
2018-08-09T16:28:06.032Z,95316.31
2018-08-09T16:30:35.117Z,95353.50
2018-08-09T16:33:04.433Z,95348.70
2018-08-09T16:35:33.561Z,95325.84
2018-08-09T16:38:02.707Z,95323.28
2018-08-09T16:40:31.790Z,95314.59
2018-08-09T16:43:01.379Z,95321.89
2018-08-09T16:45:30.583Z,95322.87
2018-08-09T16:47:59.711Z,95326.28
2018-08-09T16:50:28.787Z,95312.84
2018-08-09T16:52:57.887Z,95310.51
2018-08-09T16:55:27.256Z,95305.07
2018-08-09T16:57:56.475Z,95306.06
2018-08-09T17:00:25.955Z,95310.34
2018-08-09T17:02:55.722Z,95306.05
2018-08-09T17:05:26.076Z,95304.89
2018-08-09T17:07:55.612Z,95302.11
2018-08-09T17:10:25.515Z,95297.52
2018-08-09T17:12:54.686Z,95298.84
2018-08-09T17:15:25.999Z,95300.03
2018-08-09T17:17:55.731Z,95293.81
2018-08-09T17:20:27.095Z,95297.34
2018-08-09T17:22:56.781Z,95298.64
2018-08-09T17:25:26.000Z,95302.02
2018-08-09T17:27:55.121Z,95319.71
2018-08-09T17:30:25.634Z,95357.55
2018-08-09T17:32:55.534Z,95369.84
2018-08-09T17:35:24.671Z,95372.47
2018-08-09T17:37:54.323Z,95374.28
2018-08-09T17:40:25.834Z,95388.66
2018-08-09T17:42:55.721Z,95395.42
2018-08-09T17:45:27.219Z,95420.59
2018-08-09T17:47:56.340Z,95425.43
2018-08-09T17:50:25.760Z,95436.41
2018-08-09T17:52:56.394Z,95451.36
2018-08-09T17:55:25.508Z,95466.52
2018-08-09T17:57:54.621Z,95479.94
2018-08-09T18:00:25.702Z,95487.91
2018-08-09T18:02:55.092Z,95510.98
2018-08-09T18:05:24.219Z,95530.33
2018-08-09T18:07:53.906Z,95549.52
2018-08-09T18:10:25.532Z,95570.97
2018-08-09T18:12:54.617Z,95584.53
2018-08-09T18:15:24.829Z,95596.72
2018-08-09T18:17:54.141Z,95614.17
2018-08-09T18:20:25.353Z,95632.39
2018-08-09T18:22:54.468Z,95653.20
2018-08-09T18:25:24.040Z,95685.59
2018-08-09T18:27:53.191Z,95695.14
2018-08-09T18:30:22.290Z,95693.95
2018-08-09T18:32:51.464Z,95696.37
2018-08-09T18:35:20.854Z,95700.98
2018-08-09T18:37:49.940Z,95702.42
2018-08-09T18:40:21.969Z,95709.05
2018-08-09T18:42:51.092Z,95712.34
2018-08-09T18:45:20.653Z,95719.42
2018-08-09T18:47:49.766Z,95725.80
2018-08-09T18:50:22.380Z,95745.17
2018-08-09T18:52:51.941Z,95746.64
2018-08-09T18:55:21.095Z,95759.41
2018-08-09T18:57:50.221Z,95768.81
2018-08-09T19:00:20.757Z,95767.69
2018-08-09T19:02:50.419Z,95770.44
2018-08-09T19:05:19.615Z,95773.96
2018-08-09T19:07:48.908Z,95771.63
2018-08-09T19:10:54.220Z,95766.13
2018-08-09T19:13:23.362Z,95761.14
2018-08-09T19:15:52.580Z,95766.16
2018-08-09T19:18:21.723Z,95770.21
2018-08-09T19:20:50.850Z,95776.98
2018-08-09T19:23:19.949Z,95782.03
2018-08-09T19:25:49.189Z,95786.55
2018-08-09T19:28:18.295Z,95794.11
2018-08-09T19:30:47.410Z,95802.22
2018-08-09T19:33:16.583Z,95793.25
2018-08-09T19:35:45.719Z,95802.14
2018-08-09T19:38:14.983Z,95802.34
2018-08-09T19:40:44.245Z,95805.28
2018-08-09T19:43:13.365Z,95807.73
2018-08-09T19:45:43.103Z,95810.73
2018-08-09T19:48:12.258Z,95826.45
2018-08-09T19:50:41.945Z,95831.42
2018-08-09T19:53:11.077Z,95816.81
2018-08-09T19:55:40.369Z,95814.55
2018-08-09T19:58:09.491Z,95813.44
2018-08-09T20:00:38.601Z,95826.88
2018-08-09T20:03:07.793Z,95822.78
2018-08-09T20:05:36.992Z,95825.31
2018-08-09T20:08:06.175Z,95830.88
2018-08-09T20:10:35.317Z,95824.16
2018-08-09T20:13:04.455Z,95822.66
2018-08-09T20:15:33.711Z,95817.21
2018-08-09T20:18:02.793Z,95827.61
2018-08-09T20:20:32.121Z,95815.43
2018-08-09T20:23:01.248Z,95805.38
2018-08-09T20:25:30.348Z,95807.30
2018-08-09T20:27:59.557Z,95806.34
2018-08-09T20:30:29.464Z,95812.86
2018-08-09T20:32:58.636Z,95817.00
2018-08-09T20:35:27.755Z,95832.50
2018-08-09T20:37:56.875Z,95861.06
2018-08-09T20:40:25.981Z,95863.84
2018-08-09T20:42:55.302Z,95875.41
2018-08-09T20:45:25.088Z,95876.91
2018-08-09T20:47:54.268Z,95874.72
2018-08-09T20:50:25.252Z,95878.97
2018-08-09T20:52:54.354Z,95895.16
2018-08-09T20:55:23.544Z,95893.98
2018-08-09T20:57:53.442Z,95884.05
2018-08-09T21:00:27.358Z,95876.66
2018-08-09T21:02:57.896Z,95879.67
2018-08-09T21:05:29.323Z,95876.55
2018-08-09T21:07:58.713Z,95880.61
2018-08-09T21:10:28.224Z,95876.87
2018-08-09T21:12:57.363Z,95875.95
2018-08-09T21:15:26.623Z,95874.36
2018-08-09T21:17:55.599Z,95877.11
2018-08-09T21:20:24.728Z,95881.61
2018-08-09T21:22:53.865Z,95874.23
2018-08-09T21:25:23.007Z,95875.01
2018-08-09T21:27:52.138Z,95880.83
2018-08-09T21:30:22.655Z,95877.33
2018-08-09T21:32:52.138Z,95880.55
2018-08-09T21:35:21.315Z,95878.35
2018-08-09T21:37:50.467Z,95889.44
2018-08-09T21:40:19.658Z,95892.25
2018-08-09T21:42:48.695Z,95894.20
2018-08-09T21:45:19.393Z,95903.70
2018-08-09T21:47:48.999Z,95908.79
2018-08-09T21:50:21.622Z,95911.80
2018-08-09T21:52:50.727Z,95914.79
2018-08-09T21:55:19.910Z,95921.03
2018-08-09T21:57:49.044Z,95926.48
2018-08-09T22:00:52.049Z,95932.14
2018-08-09T22:03:27.069Z,95934.55
2018-08-09T22:06:01.628Z,95939.08
2018-08-09T22:08:36.064Z,95946.34
2018-08-09T22:11:10.967Z,95940.83
2018-08-09T22:13:45.504Z,95950.53
2018-08-09T22:16:19.943Z,95952.25
2018-08-09T22:18:54.391Z,95943.24
2018-08-09T22:21:28.780Z,95950.66
2018-08-09T22:23:57.900Z,95941.73
2018-08-09T22:26:27.041Z,95949.02
2018-08-09T22:28:56.292Z,95954.57
2018-08-09T22:31:25.437Z,95960.48
2018-08-09T22:33:54.693Z,95961.84
2018-08-09T22:36:23.901Z,95968.41
2018-08-09T22:38:52.929Z,95968.56
2018-08-09T22:41:22.013Z,95970.65
2018-08-09T22:43:51.137Z,95967.06
2018-08-09T22:46:20.223Z,95972.73
2018-08-09T22:48:49.363Z,95974.11
2018-08-09T22:51:18.486Z,95975.38
2018-08-09T22:53:47.599Z,95982.28
2018-08-09T22:56:16.711Z,95974.89
2018-08-09T22:58:46.193Z,95982.64
2018-08-09T23:01:15.278Z,95991.98
2018-08-09T23:03:44.683Z,96003.77
2018-08-09T23:06:15.335Z,96012.28
2018-08-09T23:08:44.550Z,96020.11
2018-08-09T23:11:13.716Z,96019.95
2018-08-09T23:13:42.919Z,96035.05
2018-08-09T23:16:12.005Z,96033.72
2018-08-09T23:18:41.167Z,96032.81
2018-08-09T23:21:10.273Z,96033.62
2018-08-09T23:23:39.413Z,96036.01
2018-08-09T23:26:08.549Z,96034.77
2018-08-09T23:28:37.658Z,96039.88
2018-08-09T23:31:06.953Z,96049.39
2018-08-09T23:33:36.031Z,96041.41
2018-08-09T23:36:05.314Z,96047.91
2018-08-09T23:38:34.495Z,96048.47
2018-08-09T23:41:03.616Z,96057.12
2018-08-09T23:43:32.689Z,96060.84
2018-08-09T23:46:01.789Z,96074.35
2018-08-09T23:48:31.008Z,96080.60
2018-08-09T23:51:00.105Z,96074.50
2018-08-09T23:53:29.260Z,96072.87
2018-08-09T23:55:58.364Z,96066.20
2018-08-09T23:58:27.468Z,96064.56
